Time;durP1;ratioP1;P1;durP2;ratioP2;P2;SDS_P1;SDS_P2;PMS_P1;PMS_P2;Temp;Humidity;BMP_temperature;BMP_pressure;BME280_temperature;BME280_humidity;BME280_pressure;Samples;Min_cycle;Max_cycle;Signal;HPM_P1;HPM_P2
2021/10/02 00:41:16;;;;;;;21.23;16.90;;;;;;;9.76;64.45;101154.41;1624298;88;20904;-74
2021/10/02 00:46:21;;;;;;;20.68;15.43;;;;;;;9.72;64.61;101154.84;1646357;86;21559;-74
2021/10/02 00:48:50;;;;;;;17.70;15.58;;;;;;;9.69;64.62;101161.31;1652827;86;20971;-74
2021/10/02 00:51:16;;;;;;;21.73;16.07;;;;;;;9.67;64.67;101160.45;1653609;86;20922;-74
2021/10/02 00:53:42;;;;;;;22.45;16.17;;;;;;;9.64;64.74;101157.88;1630931;86;20986;-74
2021/10/02 00:56:11;;;;;;;20.82;15.48;;;;;;;9.60;64.72;101153.16;1642321;86;20932;-74
2021/10/02 00:58:43;;;;;;;22.50;15.58;;;;;;;9.54;64.73;101154.91;1623352;88;20956;-75
2021/10/02 01:01:05;;;;;;;19.65;14.93;;;;;;;9.48;64.85;101149.76;1599780;88;20948;-75
2021/10/02 01:04:19;;;;;;;20.17;14.90;;;;;;;9.44;64.85;101156.66;1614108;86;20948;-75
2021/10/02 01:07:14;;;;;;;20.65;15.78;;;;;;;9.36;64.92;101157.09;1652693;86;20931;-75
2021/10/02 01:10:12;;;;;;;19.80;13.83;;;;;;;9.31;65.00;101155.42;1643779;86;20960;-75
2021/10/02 01:13:30;;;;;;;17.62;14.80;;;;;;;9.26;65.06;101145.97;1649806;86;20969;-75
2021/10/02 01:16:14;;;;;;;17.70;14.70;;;;;;;9.20;65.09;101145.98;1621648;86;20980;-75
2021/10/02 01:19:03;;;;;;;20.43;15.03;;;;;;;9.15;65.19;101149.43;1645083;86;20980;-75
2021/10/02 01:21:47;;;;;;;20.43;15.50;;;;;;;9.10;65.22;101141.70;1652484;86;20973;-75
2021/10/02 01:24:50;;;;;;;18.82;15.63;;;;;;;9.05;65.24;101136.97;1643199;86;20968;-74
2021/10/02 01:27:50;;;;;;;22.48;16.23;;;;;;;9.02;65.34;101139.98;1648298;86;21009;-74
2021/10/02 01:30:26;;;;;;;22.48;15.50;;;;;;;8.94;65.45;101142.57;1649512;86;20938;-74
2021/10/02 01:33:00;;;;;;;20.77;15.25;;;;;;;8.87;65.45;101133.98;1625326;86;20903;-74
2021/10/02 01:35:47;;;;;;;20.95;15.13;;;;;;;8.82;65.52;101133.58;1634422;86;20984;-74
2021/10/02 01:49:19;;;;;;;20.68;14.80;;;;;;;8.71;65.95;101121.13;1596885;89;21301;-74
2021/10/02 01:51:47;;;;;;;23.57;17.10;;;;;;;8.71;66.03;101118.11;1645635;86;21395;-74
2021/10/02 01:54:15;;;;;;;22.02;16.23;;;;;;;8.72;66.13;101118.97;1653589;86;21471;-74
2021/10/02 01:56:46;;;;;;;23.10;15.40;;;;;;;8.69;66.14;101117.69;1648851;86;20932;-74
2021/10/02 01:59:13;;;;;;;19.40;15.23;;;;;;;8.69;66.26;101110.81;1616508;86;20960;-74
2021/10/02 02:01:42;;;;;;;21.52;15.32;;;;;;;8.71;66.26;101118.55;1653233;86;20939;-74
2021/10/02 02:04:08;;;;;;;21.10;16.00;;;;;;;8.67;66.26;101109.09;1652088;85;20943;-74
2021/10/02 02:06:35;;;;;;;22.50;16.10;;;;;;;8.65;66.37;101102.65;1624046;88;20927;-74
2021/10/02 02:09:02;;;;;;;20.37;16.15;;;;;;;8.65;66.50;101101.79;1596192;89;20951;-74
2021/10/02 02:11:31;;;;;;;25.37;16.62;;;;;;;8.63;66.52;101099.21;1652013;86;21161;-74
2021/10/02 02:14:00;;;;;;;20.37;15.88;;;;;;;8.64;66.57;101095.77;1598216;88;20996;-74
2021/10/02 02:16:28;;;;;;;22.45;15.98;;;;;;;8.63;66.66;101094.05;1653453;86;20948;-74
2021/10/02 02:18:57;;;;;;;19.27;14.63;;;;;;;8.63;66.70;101087.61;1616710;88;21304;-74
2021/10/02 02:21:25;;;;;;;22.95;16.65;;;;;;;8.63;66.75;101087.61;1596286;89;21561;-74
2021/10/02 02:23:52;;;;;;;22.75;15.53;;;;;;;8.63;66.81;101089.76;1650587;86;21039;-74
2021/10/02 02:26:18;;;;;;;23.37;15.83;;;;;;;8.65;66.93;101088.90;1651659;86;20920;-74
2021/10/02 02:28:45;;;;;;;22.30;16.40;;;;;;;8.64;66.95;101085.46;1642029;86;21504;-74
2021/10/02 02:31:12;;;;;;;22.00;16.23;;;;;;;8.63;66.93;101085.89;1651745;85;21000;-74
2021/10/02 02:33:39;;;;;;;25.57;16.77;;;;;;;8.61;67.01;101078.59;1643585;85;21090;-74
2021/10/02 02:36:07;;;;;;;25.68;17.30;;;;;;;8.60;67.11;101069.14;1616344;86;21210;-74
2021/10/02 02:38:34;;;;;;;18.52;15.32;;;;;;;8.60;67.15;101076.88;1651310;86;21019;-74
2021/10/02 02:41:00;;;;;;;21.33;14.50;;;;;;;8.60;67.24;101074.72;1632830;87;21442;-74
2021/10/02 02:43:34;;;;;;;20.40;15.85;;;;;;;8.59;67.24;101072.58;1626897;86;20965;-74
2021/10/02 02:46:22;;;;;;;19.98;15.75;;;;;;;8.58;67.32;101066.98;1607900;87;21375;-74
2021/10/02 02:49:11;;;;;;;22.40;14.55;;;;;;;8.56;67.35;101071.28;1643022;86;20981;-74
2021/10/02 02:52:02;;;;;;;21.75;15.23;;;;;;;8.55;67.40;101072.14;1640289;86;20941;-74
2021/10/02 02:54:46;;;;;;;20.40;15.03;;;;;;;8.55;67.46;101074.72;1649376;86;20924;-74
2021/10/02 02:57:16;;;;;;;19.48;15.30;;;;;;;8.53;67.56;101070.43;1635172;86;20885;-74
2021/10/02 03:00:00;;;;;;;20.40;15.13;;;;;;;8.52;67.56;101068.28;1632515;86;20941;-74
2021/10/02 03:02:27;;;;;;;17.82;15.05;;;;;;;8.51;67.61;101066.56;1643387;86;20977;-74
2021/10/02 03:04:57;;;;;;;25.10;16.12;;;;;;;8.49;67.67;101068.28;1648559;86;20952;-74
2021/10/02 03:07:25;;;;;;;22.15;15.65;;;;;;;8.47;67.74;101055.82;1632721;86;20968;-74
2021/10/02 03:09:52;;;;;;;21.85;16.23;;;;;;;8.46;67.79;101058.41;1638606;86;21422;-74
2021/10/02 03:12:24;;;;;;;19.12;15.35;;;;;;;8.44;67.84;101050.67;1639629;86;21511;-74
2021/10/02 03:14:51;;;;;;;19.60;16.07;;;;;;;8.43;67.83;101051.96;1636421;86;21042;-74
2021/10/02 03:17:18;;;;;;;19.62;14.58;;;;;;;8.42;67.95;101051.53;1624769;86;20953;-74
2021/10/02 03:19:59;;;;;;;21.40;14.78;;;;;;;8.40;67.94;101046.80;1633219;86;21431;-74
2021/10/02 03:22:29;;;;;;;21.02;14.90;;;;;;;8.39;67.99;101047.66;1628242;87;21827;-75
2021/10/02 03:24:56;;;;;;;18.80;15.15;;;;;;;8.37;68.03;101045.09;1582092;89;21462;-75
2021/10/02 03:27:25;;;;;;;20.32;15.58;;;;;;;8.36;68.07;101045.09;1624630;87;20913;-75
2021/10/02 03:29:51;;;;;;;22.58;15.05;;;;;;;8.34;68.14;101046.38;1594721;87;21438;-75
2021/10/02 03:32:19;;;;;;;21.55;15.93;;;;;;;8.32;68.18;101042.08;1606359;87;20949;-75
2021/10/02 03:34:45;;;;;;;22.42;16.23;;;;;;;8.30;68.27;101038.22;1649559;86;20936;-75
2021/10/02 03:37:11;;;;;;;22.30;16.07;;;;;;;8.29;68.23;101036.50;1635833;87;21433;-75
2021/10/02 03:39:38;;;;;;;22.17;16.80;;;;;;;8.27;68.36;101033.06;1588240;87;20945;-75
2021/10/02 03:42:13;;;;;;;23.55;16.48;;;;;;;8.24;68.43;101026.62;1594710;88;20955;-75
2021/10/02 03:44:43;;;;;;;23.60;16.60;;;;;;;8.23;68.49;101021.90;1599456;88;21540;-75
2021/10/02 03:47:12;;;;;;;20.75;14.87;;;;;;;8.22;68.51;101024.05;1579449;89;20925;-75
2021/10/02 03:49:39;;;;;;;22.73;16.70;;;;;;;8.20;68.50;101024.47;1569165;89;20996;-75
2021/10/02 03:52:09;;;;;;;23.05;16.15;;;;;;;8.19;68.57;101025.33;1594478;89;21520;-75
2021/10/02 03:54:35;;;;;;;24.70;16.80;;;;;;;8.19;68.66;101032.20;1633855;87;21493;-75
2021/10/02 03:57:03;;;;;;;21.95;15.10;;;;;;;8.17;68.67;101028.33;1632998;87;20997;-75
2021/10/02 03:59:29;;;;;;;20.88;15.32;;;;;;;8.16;68.64;101026.61;1594270;87;21517;-75
2021/10/02 04:01:55;;;;;;;23.70;15.40;;;;;;;8.15;68.70;101031.77;1591290;89;20930;-75
2021/10/02 04:04:22;;;;;;;18.57;15.47;;;;;;;8.13;68.82;101028.33;1642817;86;21043;-75
2021/10/02 04:06:49;;;;;;;22.30;15.78;;;;;;;8.10;68.76;101026.61;1615523;87;20969;-75
2021/10/02 04:09:16;;;;;;;21.95;16.40;;;;;;;8.09;68.84;101026.61;1592194;89;20954;-75
2021/10/02 04:11:42;;;;;;;22.48;17.15;;;;;;;8.06;68.87;101024.89;1632956;87;20889;-75
2021/10/02 04:14:08;;;;;;;19.77;14.87;;;;;;;8.06;68.96;101024.03;1634246;86;20913;-75
2021/10/02 04:16:40;;;;;;;21.52;16.50;;;;;;;8.04;68.97;101021.45;1623806;86;21509;-75
2021/10/02 04:19:06;;;;;;;20.33;15.40;;;;;;;8.02;69.04;101024.45;1587839;89;21679;-75
2021/10/02 04:21:32;;;;;;;18.37;14.77;;;;;;;7.99;69.11;101018.02;1634009;87;21762;-75
2021/10/02 04:24:00;;;;;;;20.40;15.77;;;;;;;7.96;69.12;101015.44;1634729;87;21488;-75
2021/10/02 04:26:26;;;;;;;20.02;15.03;;;;;;;7.94;69.16;101018.44;1624479;87;21593;-75
2021/10/02 04:28:52;;;;;;;22.60;15.20;;;;;;;7.91;69.18;101019.72;1602389;88;21471;-75
2021/10/02 04:31:18;;;;;;;17.77;15.00;;;;;;;7.89;69.17;101024.00;1606050;88;21606;-75
2021/10/02 04:33:45;;;;;;;18.23;14.23;;;;;;;7.87;69.27;101022.72;1616513;88;21481;-75
2021/10/02 04:36:13;;;;;;;20.43;15.18;;;;;;;7.84;69.32;101014.98;1598261;87;21770;-75
2021/10/02 04:38:42;;;;;;;19.75;15.00;;;;;;;7.83;69.34;101014.98;1623394;86;21457;-74
2021/10/02 04:41:09;;;;;;;18.80;14.30;;;;;;;7.81;69.34;101013.70;1597004;89;20903;-74
2021/10/02 04:43:41;;;;;;;23.67;15.90;;;;;;;7.79;69.34;101008.14;1647663;86;21532;-74
2021/10/02 04:46:09;;;;;;;22.77;15.88;;;;;;;7.77;69.38;101008.57;1645998;86;21505;-74
2021/10/02 04:48:37;;;;;;;20.48;15.83;;;;;;;7.74;69.41;101010.71;1647663;86;20967;-75
2021/10/02 04:51:04;;;;;;;21.52;15.58;;;;;;;7.72;69.45;101012.85;1621849;88;21519;-75
2021/10/02 04:53:31;;;;;;;31.33;16.73;;;;;;;7.70;69.54;101012.84;1651277;86;21461;-75
2021/10/02 04:56:00;;;;;;;24.47;17.87;;;;;;;7.68;69.65;101006.84;1648896;86;21143;-74
2021/10/02 04:58:27;;;;;;;26.00;17.32;;;;;;;7.68;69.76;101009.84;1648709;85;21483;-74
2021/10/02 05:00:54;;;;;;;23.57;15.72;;;;;;;7.68;69.76;101006.84;1655561;85;21413;-74
2021/10/02 05:03:20;;;;;;;21.27;16.17;;;;;;;7.69;69.79;101008.55;1633506;86;25036;-75
2021/10/02 05:05:46;;;;;;;20.37;15.88;;;;;;;7.70;69.88;101011.56;1651260;85;21153;-75
2021/10/02 05:08:12;;;;;;;22.60;17.30;;;;;;;7.71;69.90;101011.99;1651512;85;21554;-75
2021/10/02 05:10:41;;;;;;;19.82;14.90;;;;;;;7.61;69.80;100999.53;1652831;85;21791;-75
2021/10/02 05:13:07;;;;;;;20.05;14.28;;;;;;;7.61;69.80;100999.53;1622884;86;21456;-75
2021/10/02 05:15:34;;;;;;;20.17;14.83;;;;;;;7.71;69.92;101008.12;1648506;85;22455;-75
2021/10/02 05:18:01;;;;;;;23.80;15.50;;;;;;;7.73;70.07;101009.42;1653320;85;21153;-75
2021/10/02 05:20:29;;;;;;;21.45;15.28;;;;;;;7.73;70.07;101006.42;1621948;86;21541;-75
2021/10/02 05:22:58;;;;;;;20.52;15.50;;;;;;;7.75;70.09;101005.13;1595224;86;21130;-75
2021/10/02 05:25:25;;;;;;;21.55;16.00;;;;;;;7.77;70.18;101008.57;1654720;85;20938;-75
2021/10/02 05:27:51;;;;;;;20.82;16.20;;;;;;;7.80;70.20;101009.41;1655026;85;20952;-75
2021/10/02 05:30:17;;;;;;;20.57;16.02;;;;;;;7.83;70.28;101010.70;1627694;86;20960;-74
2021/10/02 05:32:43;;;;;;;21.37;15.87;;;;;;;7.87;70.37;101011.13;1658376;85;20960;-74
2021/10/02 05:35:09;;;;;;;20.93;15.33;;;;;;;7.91;70.37;101012.00;1658970;85;20967;-74
2021/10/02 05:37:37;;;;;;;22.82;16.05;;;;;;;7.95;70.44;101013.29;1656360;85;20952;-74
2021/10/02 05:40:05;;;;;;;21.35;16.32;;;;;;;8.01;70.48;101011.15;1655749;85;20983;-74
2021/10/02 05:42:31;;;;;;;23.20;17.35;;;;;;;8.05;70.48;101012.02;1656146;85;20936;-74
2021/10/02 05:44:59;;;;;;;23.70;16.20;;;;;;;8.11;70.59;101012.02;1654186;85;20889;-74
2021/10/02 05:47:25;;;;;;;20.87;16.17;;;;;;;8.18;70.66;101008.16;1655868;85;20995;-74
2021/10/02 05:49:52;;;;;;;23.62;16.27;;;;;;;8.29;70.78;101015.45;1658751;85;20976;-74
2021/10/02 05:52:21;;;;;;;19.73;16.30;;;;;;;8.45;70.84;101016.31;1659113;85;20873;-75
2021/10/02 05:54:47;;;;;;;21.82;17.07;;;;;;;8.67;70.93;101018.86;1652640;85;20936;-75
2021/10/02 05:57:13;;;;;;;23.70;16.30;;;;;;;8.92;71.00;101026.52;1657727;85;20967;-75
2021/10/02 05:59:39;;;;;;;23.50;16.63;;;;;;;9.17;70.97;101012.25;1655325;85;21099;-75
2021/10/02 06:02:05;;;;;;;20.30;15.73;;;;;;;9.41;70.97;101011.26;1654734;85;20940;-75
2021/10/02 06:04:31;;;;;;;24.27;16.35;;;;;;;9.67;71.02;101011.98;1655849;85;21063;-75
2021/10/02 06:06:57;;;;;;;22.55;16.70;;;;;;;9.91;71.00;101019.55;1656198;85;21001;-75
2021/10/02 06:09:23;;;;;;;20.37;15.77;;;;;;;10.17;70.96;101028.84;1654869;85;20996;-75
2021/10/02 06:11:49;;;;;;;19.43;15.47;;;;;;;10.42;71.00;101030.80;1653899;85;21578;-75
2021/10/02 06:14:15;;;;;;;20.83;15.60;;;;;;;10.65;70.85;101020.25;1659017;85;21158;-74
2021/10/02 06:16:41;;;;;;;18.53;14.07;;;;;;;10.85;70.92;101021.77;1654235;85;21135;-74
2021/10/02 06:19:08;;;;;;;17.37;13.50;;;;;;;11.09;70.96;101018.02;1654442;85;21386;-75
2021/10/02 06:21:35;;;;;;;19.95;15.15;;;;;;;11.33;70.97;101018.60;1658435;85;28223;-75
2021/10/02 06:24:01;;;;;;;17.25;14.07;;;;;;;11.52;70.89;101017.02;1650957;85;21106;-75
2021/10/02 06:26:31;;;;;;;17.07;14.83;;;;;;;11.72;70.95;101011.56;1629731;86;21447;-75
2021/10/02 06:29:00;;;;;;;17.95;14.15;;;;;;;11.95;70.99;101016.45;1656126;85;20964;-75
2021/10/02 06:31:26;;;;;;;19.60;13.90;;;;;;;12.17;70.97;101015.20;1654015;85;20963;-75
2021/10/02 06:33:52;;;;;;;18.50;14.43;;;;;;;12.35;70.86;101015.34;1656203;85;20912;-75
2021/10/02 06:36:18;;;;;;;15.40;13.17;;;;;;;12.48;70.86;101019.41;1629335;86;20931;-73
2021/10/02 06:38:44;;;;;;;18.10;14.13;;;;;;;12.63;70.86;101023.92;1596364;88;21725;-74
2021/10/02 06:41:11;;;;;;;17.87;13.90;;;;;;;12.76;70.91;101023.67;1623645;86;20940;-74
2021/10/02 06:43:41;;;;;;;18.98;14.30;;;;;;;12.91;70.86;101022.53;1654071;86;20940;-74
2021/10/02 06:46:07;;;;;;;15.33;13.53;;;;;;;13.04;70.85;101014.89;1652076;85;20916;-74
2021/10/02 06:48:33;;;;;;;18.87;14.97;;;;;;;13.20;70.89;101016.33;1627958;86;20872;-73
2021/10/02 06:50:59;;;;;;;16.77;14.28;;;;;;;13.33;70.90;101018.68;1607779;88;21091;-73
2021/10/02 06:53:25;;;;;;;15.63;13.00;;;;;;;13.45;70.97;101016.68;1598966;88;20944;-73
2021/10/02 06:55:51;;;;;;;14.20;12.73;;;;;;;13.60;70.95;101012.87;1626605;86;21065;-73
2021/10/02 06:58:17;;;;;;;15.37;13.77;;;;;;;13.74;71.00;101013.86;1624883;86;21707;-73
2021/10/02 07:00:43;;;;;;;16.60;14.30;;;;;;;13.94;71.02;101012.97;1622725;86;20947;-74
2021/10/02 07:03:08;;;;;;;13.70;12.30;;;;;;;14.16;71.05;101013.28;1655206;85;21011;-74
2021/10/02 07:05:34;;;;;;;16.83;12.83;;;;;;;14.36;70.87;101011.48;1621713;86;20984;-74
2021/10/02 07:08:01;;;;;;;17.57;12.37;;;;;;;14.44;70.81;101006.53;1651615;85;20950;-74
2021/10/02 07:10:29;;;;;;;15.60;12.95;;;;;;;14.67;70.78;101007.20;1655867;85;21087;-73
2021/10/02 07:12:55;;;;;;;14.85;12.13;;;;;;;14.99;70.68;101001.12;1623213;86;21075;-74
2021/10/02 07:15:22;;;;;;;15.57;12.40;;;;;;;15.16;70.48;100999.32;1623100;86;20987;-74
2021/10/02 07:17:48;;;;;;;14.73;12.07;;;;;;;15.19;70.36;101009.20;1651931;85;21578;-74
2021/10/02 07:20:15;;;;;;;16.55;12.63;;;;;;;15.17;70.49;101006.23;1647588;85;21086;-74
2021/10/02 07:22:43;;;;;;;12.88;11.55;;;;;;;15.23;70.61;101007.36;1642883;86;21011;-73
2021/10/02 07:25:14;;;;;;;14.13;12.65;;;;;;;15.28;70.62;101006.78;1598576;88;20988;-73
2021/10/02 07:27:48;;;;;;;13.45;11.43;;;;;;;15.37;70.60;101002.61;1653170;85;20928;-73
2021/10/02 07:30:14;;;;;;;14.70;12.10;;;;;;;15.50;70.57;100998.73;1652562;85;20996;-73
2021/10/02 07:32:40;;;;;;;17.33;12.87;;;;;;;15.57;70.52;100997.28;1651733;85;20964;-73
2021/10/02 07:35:09;;;;;;;13.55;12.18;;;;;;;15.61;70.61;101001.02;1665165;85;20974;-73
2021/10/02 07:37:35;;;;;;;14.38;11.43;;;;;;;15.69;70.60;100996.43;1665103;85;20924;-73
2021/10/02 07:40:07;;;;;;;15.60;11.75;;;;;;;15.82;70.57;100987.77;1623690;86;20976;-73
2021/10/02 07:42:36;;;;;;;15.63;12.40;;;;;;;16.00;70.50;100990.25;1659566;85;20972;-73
2021/10/02 07:45:07;;;;;;;13.35;11.97;;;;;;;16.09;70.46;100982.98;1656374;86;20887;-73
2021/10/02 07:47:41;;;;;;;25.12;13.25;;;;;;;16.14;70.30;100981.49;1655682;86;20931;-73
2021/10/02 07:50:10;;;;;;;14.15;11.75;;;;;;;16.13;70.42;100981.09;1654198;85;20968;-74
2021/10/02 07:52:39;;;;;;;18.60;11.68;;;;;;;16.25;70.39;100981.99;1628958;86;20903;-74
2021/10/02 07:55:08;;;;;;;12.93;10.70;;;;;;;16.36;70.11;100982.94;1595150;88;20936;-74
2021/10/02 07:57:36;;;;;;;13.83;10.30;;;;;;;16.39;70.27;100980.22;1655098;86;21427;-74
2021/10/02 08:00:12;;;;;;;12.63;10.90;;;;;;;16.45;70.43;100976.09;1656159;85;20989;-74
2021/10/02 08:02:46;;;;;;;15.13;12.47;;;;;;;16.48;70.34;100979.91;1655707;85;20961;-74
2021/10/02 08:05:14;;;;;;;13.32;12.03;;;;;;;16.41;70.30;100980.57;1649542;85;20917;-74
2021/10/02 08:07:43;;;;;;;14.03;10.98;;;;;;;16.44;70.23;100976.55;1653220;86;20893;-74
2021/10/02 08:10:11;;;;;;;13.72;11.85;;;;;;;16.54;70.23;100978.39;1614480;88;21118;-74
2021/10/02 08:12:38;;;;;;;14.03;10.98;;;;;;;16.62;70.08;100977.67;1650349;86;20986;-75
2021/10/02 08:15:06;;;;;;;;;;;;;;;16.55;70.00;100980.95;1629727;86;21432;-75
2021/10/02 08:17:35;;;;;;;14.20;11.40;;;;;;;16.45;69.59;100978.25;1638188;85;20233;-75
2021/10/02 08:20:08;;;;;;;12.30;9.95;;;;;;;16.35;69.76;100979.47;1655094;86;20956;-75
2021/10/02 08:22:41;;;;;;;14.55;11.65;;;;;;;16.25;69.76;100972.86;1653586;86;21075;-74
2021/10/02 08:25:10;;;;;;;12.70;10.98;;;;;;;16.25;69.74;100970.25;1640740;86;21130;-74
2021/10/02 08:27:36;;;;;;;15.95;10.25;;;;;;;16.25;69.71;100967.64;1640905;86;21130;-74
2021/10/02 08:30:07;;;;;;;14.80;10.75;;;;;;;16.29;69.58;100962.72;1613519;88;21056;-73
2021/10/02 08:32:34;;;;;;;14.83;10.45;;;;;;;16.27;69.43;100967.14;1599210;88;21135;-73
2021/10/02 08:35:02;;;;;;;12.98;10.30;;;;;;;16.19;69.29;100960.87;1632063;86;21131;-73
2021/10/02 08:37:30;;;;;;;13.98;10.03;;;;;;;16.17;69.28;100960.52;1654859;86;20977;-73
2021/10/02 08:39:57;;;;;;;12.03;10.43;;;;;;;16.14;69.18;100958.86;1642645;85;21106;-73
2021/10/02 08:42:25;;;;;;;13.08;11.63;;;;;;;16.11;69.06;100956.84;1646013;85;21339;-73
2021/10/02 08:44:53;;;;;;;12.73;10.80;;;;;;;16.07;68.99;100956.55;1651946;86;21121;-73
2021/10/02 08:47:22;;;;;;;13.70;10.85;;;;;;;16.04;68.93;100951.42;1589160;89;21627;-73
2021/10/02 08:49:51;;;;;;;15.25;11.28;;;;;;;15.99;68.84;100957.24;1651470;85;21110;-73
2021/10/02 08:52:20;;;;;;;13.22;10.65;;;;;;;15.94;68.79;100953.48;1651942;85;21138;-73
2021/10/02 08:54:49;;;;;;;15.00;10.55;;;;;;;15.94;68.74;100952.17;1651988;86;21135;-73
2021/10/02 08:57:25;;;;;;;15.90;10.90;;;;;;;15.91;68.59;100951.42;1636900;86;21067;-73
2021/10/02 08:59:54;;;;;;;12.60;10.70;;;;;;;15.86;68.54;100954.18;1650800;86;21131;-72
2021/10/02 09:02:22;;;;;;;13.55;10.75;;;;;;;15.82;68.48;100945.60;1626246;86;21123;-72
2021/10/02 09:04:50;;;;;;;15.58;10.32;;;;;;;15.81;68.39;100950.41;1645630;86;21433;-72
2021/10/02 09:07:19;;;;;;;14.63;10.23;;;;;;;15.80;68.40;100948.70;1620518;88;21079;-72
2021/10/02 09:09:47;;;;;;;10.85;9.70;;;;;;;15.82;68.30;100951.27;1622365;86;21076;-73
2021/10/02 09:12:19;;;;;;;18.95;10.60;;;;;;;15.82;68.28;100940.84;1618385;86;21063;-73
2021/10/02 09:14:43;;;;;;;13.65;10.45;;;;;;;15.85;68.23;100943.34;1651210;86;21063;-73
2021/10/02 09:17:09;;;;;;;12.35;9.68;;;;;;;15.89;68.18;100938.44;1648779;86;21060;-73
2021/10/02 09:19:36;;;;;;;17.10;9.45;;;;;;;15.85;67.96;100928.55;1644378;86;21079;-73
2021/10/02 09:22:09;;;;;;;13.32;9.55;;;;;;;15.83;67.88;100932.97;1641631;86;21055;-73
2021/10/02 09:24:44;;;;;;;9.63;8.63;;;;;;;15.82;67.97;100928.66;1651823;85;21130;-73
2021/10/02 09:27:18;;;;;;;12.10;9.25;;;;;;;15.87;67.90;100929.81;1641805;86;20904;-73
2021/10/02 09:29:56;;;;;;;12.07;8.60;;;;;;;15.89;67.77;100937.12;1647383;85;20936;-72
2021/10/02 09:32:37;;;;;;;11.57;8.75;;;;;;;15.94;67.82;100935.67;1653428;85;20964;-72
2021/10/02 09:35:14;;;;;;;13.78;8.90;;;;;;;15.97;67.67;100937.73;1647220;86;20916;-72
2021/10/02 09:38:01;;;;;;;14.03;7.92;;;;;;;15.98;67.61;100931.61;1654310;85;21592;-72
2021/10/02 09:40:29;;;;;;;11.38;8.35;;;;;;;16.05;67.58;100929.66;1646788;86;20950;-72
2021/10/02 09:42:58;;;;;;;;;;;;;;;16.12;67.51;100928.06;1638618;86;20951;-72
2021/10/02 09:45:36;;;;;;;12.93;7.22;;;;;;;16.18;67.29;100926.55;1622825;86;20171;-72
2021/10/02 09:48:08;;;;;;;9.63;8.25;;;;;;;16.24;67.33;100929.41;1628685;86;20938;-73
2021/10/02 09:50:39;;;;;;;12.55;8.83;;;;;;;16.28;67.35;100925.78;1627041;86;20989;-73
2021/10/02 09:53:12;;;;;;;11.22;7.20;;;;;;;16.33;67.31;100919.95;1635612;86;21482;-73
2021/10/02 09:55:42;;;;;;;8.20;7.45;;;;;;;16.42;67.24;100914.87;1632568;86;20981;-73
2021/10/02 09:58:30;;;;;;;9.00;7.12;;;;;;;16.49;67.21;100912.44;1639027;86;20957;-73
2021/10/02 10:00:58;;;;;;;8.70;6.97;;;;;;;16.55;67.06;100918.30;1623728;86;21136;-73
2021/10/02 10:03:29;;;;;;;6.75;6.05;;;;;;;16.62;67.08;100907.63;1621849;86;21062;-73
2021/10/02 10:05:55;;;;;;;7.55;6.20;;;;;;;16.68;66.99;100903.50;1624535;87;21095;-73
2021/10/02 10:08:29;;;;;;;7.93;6.77;;;;;;;16.79;66.98;100910.03;1629225;87;20953;-73
2021/10/02 10:11:09;;;;;;;8.23;7.00;;;;;;;16.88;66.87;100915.37;1627709;87;21075;-72
2021/10/02 10:13:38;;;;;;;9.05;6.95;;;;;;;16.91;66.76;100903.50;1625485;87;21001;-72
2021/10/02 10:16:10;;;;;;;13.13;6.75;;;;;;;16.98;66.74;100911.50;1628010;86;21092;-72
2021/10/02 10:18:39;;;;;;;8.25;6.35;;;;;;;17.04;66.61;100908.66;1635724;86;21072;-72
2021/10/02 10:21:09;;;;;;;10.58;6.67;;;;;;;17.09;66.62;100901.50;1635190;86;21096;-72
2021/10/02 10:23:40;;;;;;;8.50;6.00;;;;;;;17.17;66.53;100901.17;1632716;86;21076;-72
2021/10/02 10:28:41;;;;;;;7.53;6.45;;;;;;;17.32;66.42;100891.89;1852192;76;22186;-73
2021/10/02 10:31:22;;;;;;;8.53;5.83;;;;;;;17.31;66.28;100901.95;1840076;77;20992;-73
2021/10/02 10:33:52;;;;;;;;;;;;;;;17.35;66.21;100899.16;1835139;77;21067;-73
2021/10/02 10:36:20;;;;;;;8.58;5.95;;;;;;;17.38;65.84;100892.95;1824503;77;20191;-73
2021/10/02 10:38:47;;;;;;;5.47;4.95;;;;;;;17.44;66.12;100892.26;1828700;77;20933;-73
2021/10/02 10:41:14;;;;;;;8.78;5.35;;;;;;;17.46;66.00;100889.13;1844713;77;20901;-73
2021/10/02 10:43:42;;;;;;;6.60;4.45;;;;;;;17.47;65.94;100881.67;1811629;77;20889;-73
2021/10/02 10:46:12;;;;;;;6.95;4.37;;;;;;;17.57;66.02;100885.23;1846873;77;21343;-73
2021/10/02 10:48:38;;;;;;;4.78;4.25;;;;;;;17.65;65.84;100885.77;1834758;76;20920;-73
2021/10/02 10:51:08;;;;;;;5.05;4.35;;;;;;;17.71;65.71;100881.60;1843307;77;20902;-73
2021/10/02 10:53:40;;;;;;;7.03;3.83;;;;;;;17.76;65.68;100884.42;1835143;76;20952;-73
2021/10/02 10:56:11;;;;;;;4.85;3.60;;;;;;;17.84;65.66;100881.03;1835313;77;20933;-73
2021/10/02 10:58:39;;;;;;;4.78;3.70;;;;;;;17.91;65.50;100879.47;1844234;77;20928;-73
2021/10/02 11:01:09;;;;;;;6.87;3.80;;;;;;;18.00;65.49;100879.08;1822107;77;20873;-73
2021/10/02 11:03:44;;;;;;;5.40;4.10;;;;;;;18.08;65.33;100871.75;1838184;75;20917;-73
2021/10/02 11:06:19;;;;;;;8.10;3.50;;;;;;;18.18;65.29;100866.06;1842352;77;20893;-73
2021/10/02 11:09:08;;;;;;;6.53;3.90;;;;;;;18.27;65.18;100865.23;1847785;77;20921;-73
2021/10/02 11:11:54;;;;;;;4.60;3.35;;;;;;;18.33;65.02;100866.28;1838116;77;20940;-73
2021/10/02 11:14:25;;;;;;;7.03;3.65;;;;;;;18.37;64.89;100870.00;1835536;77;20839;-73
2021/10/02 11:17:03;;;;;;;5.53;3.17;;;;;;;18.37;64.71;100862.61;1821040;77;20893;-73
2021/10/02 11:19:40;;;;;;;3.65;2.70;;;;;;;18.32;64.63;100861.50;1803308;78;20909;-73
2021/10/02 11:22:53;;;;;;;6.72;4.15;;;;;;;18.32;64.62;100861.50;1808636;78;21960;-74
2021/10/02 11:25:21;;;;;;;4.72;3.08;;;;;;;18.36;64.53;100860.91;1751419;79;20886;-74
2021/10/02 11:27:49;;;;;;;6.67;3.47;;;;;;;18.41;64.42;100862.41;1736359;80;20926;-74
2021/10/02 11:30:18;;;;;;;3.73;3.13;;;;;;;18.42;64.37;100856.71;1758741;80;20843;-74
2021/10/02 11:32:45;;;;;;;3.45;3.02;;;;;;;18.48;64.39;100853.36;1776876;80;20937;-73
2021/10/02 11:35:17;;;;;;;;;;;;;;;18.60;64.24;100857.66;1785862;79;20942;-73
2021/10/02 11:37:48;;;;;;;4.08;2.87;;;;;;;18.69;63.41;100854.20;1774420;80;20090;-73
2021/10/02 11:40:38;;;;;;;5.55;3.00;;;;;;;18.81;64.00;100865.85;1807997;78;20926;-73
2021/10/02 11:43:22;;;;;;;4.55;2.35;;;;;;;18.83;63.70;100858.77;1796406;78;20890;-73
2021/10/02 11:45:59;;;;;;;3.58;2.77;;;;;;;18.89;63.57;100871.59;1809499;78;20862;-73
2021/10/02 11:48:42;;;;;;;4.97;2.90;;;;;;;18.96;63.49;100873.00;1806526;78;20898;-73
2021/10/02 11:51:24;;;;;;;3.30;2.50;;;;;;;19.03;63.39;100871.80;1817103;78;20941;-73
2021/10/02 11:53:58;;;;;;;7.70;3.17;;;;;;;19.14;63.29;100872.14;1796980;78;20921;-73
2021/10/02 11:56:29;;;;;;;4.85;2.80;;;;;;;19.23;63.08;100864.31;1767395;80;20925;-73
2021/10/02 11:58:58;;;;;;;3.55;3.10;;;;;;;19.27;62.97;100860.58;1793047;78;20921;-73
2021/10/02 12:01:33;;;;;;;3.40;3.10;;;;;;;19.33;62.87;100866.00;1768026;80;20917;-73
2021/10/02 12:04:10;;;;;;;4.25;3.08;;;;;;;19.34;62.72;100865.08;1801988;78;20882;-74
2021/10/02 12:06:41;;;;;;;4.55;2.83;;;;;;;19.37;62.55;100867.55;1782460;78;20928;-74
2021/10/02 12:09:17;;;;;;;3.92;3.33;;;;;;;19.41;62.46;100873.88;1798607;78;20921;-74
2021/10/02 12:11:50;;;;;;;5.80;3.33;;;;;;;19.45;62.42;100873.27;1803227;78;20945;-74
2021/10/02 12:14:29;;;;;;;4.33;3.37;;;;;;;19.48;62.28;100871.81;1780338;79;21000;-74
2021/10/02 12:17:02;;;;;;;9.18;3.00;;;;;;;19.53;61.99;100870.31;1792332;78;21088;-74
2021/10/02 12:19:30;;;;;;;3.12;1.98;;;;;;;19.54;62.02;100872.86;1765919;79;20929;-74
2021/10/02 12:22:09;;;;;;;3.98;2.67;;;;;;;19.55;61.91;100867.16;1803334;78;21017;-74
2021/10/02 12:24:40;;;;;;;3.60;2.67;;;;;;;19.54;61.59;100861.52;1802748;78;21008;-74
2021/10/02 12:27:18;;;;;;;3.33;2.70;;;;;;;19.54;61.62;100872.86;1805513;78;21023;-74
2021/10/02 12:29:48;;;;;;;2.80;2.52;;;;;;;19.63;61.57;100863.69;1814598;78;20985;-74